Detalii statie BEREGSANA BEREGSAU [00001991]

Toti senzorii

Date Temperatura solului [C]Precipitatii [mm]Voltaj baterie [mV]Leaf Wetness [Min]HC Air temperature [C]HC Relative humidity [%]Punctul de roua [C]
medieminmaxsumaultimatimpmedieminmaxmediemediemin
2018-06-20 10:00:00 20.1 20.1 20.2 0 7304
2018-06-20 11:00:00 20.2 20.1 20.5 0 7304
2018-06-20 12:00:00 20.6 20.4 20.9 0 7304
2018-06-20 13:00:00 21 20.9 21.4 0 7304
2018-06-20 14:00:00 21.6 21.2 22.1 0 7304
2018-06-20 15:00:00 22.5 22.1 23 0 7304
2018-06-20 16:00:00 23.5 23.2 24 0 7304
2018-06-20 17:00:00 24.3 24 24.6 0 7304
2018-06-20 18:00:00 24.7 24.6 24.9 0 7304
2018-06-20 19:00:00 24.8 24.8 25.1 0 7304
2018-06-20 20:00:00 24.8 24.7 24.9 0 7030
2018-06-20 21:00:00 24.6 24.3 24.9 0 7010
2018-06-20 22:00:00 24.2 24 24.5 0 7000
2018-06-20 23:00:00 23.7 23.6 23.9 0 6942
2018-06-21 00:00:00 23.4 23.2 23.7 0 6942
2018-06-21 01:00:00 23 22.9 23.3 0 6932
2018-06-21 02:00:00 22.7 22.6 22.9 0 6932
2018-06-21 03:00:00 22.4 22.3 22.6 0 6932
2018-06-21 04:00:00 22.1 21.9 22.3 0 6932
2018-06-21 05:00:00 21.9 21.6 22.1 0 6922
2018-06-21 06:00:00 21.6 21.4 21.8 0 6952
2018-06-21 07:00:00 21.3 21.2 21.6 0 6992
2018-06-21 08:00:00 21.2 21 21.5 0 7176
2018-06-21 09:00:00 21.1 21 21.5 0 7314
2018-06-21 10:00:00 21.2 21 21.5 0 7304
2018-06-21 11:00:00 21.5 21.2 21.8 0 7304
2018-06-21 12:00:00 21.9 21.5 22.2 0 7304
2018-06-21 13:00:00 22.2 22.1 22.5 0 7304
2018-06-21 14:00:00 22.6 22.4 23 0 7304
2018-06-21 15:00:00 23.2 23 23.5 1 7070
2018-06-21 16:00:00 23.5 23.4 23.6 0 7098
2018-06-21 17:00:00 23.4 23.3 23.6 0 7314
2018-06-21 18:00:00 23.1 23 23.2 0 7304
2018-06-21 19:00:00 23 22.9 23.2 0 7314
2018-06-21 20:00:00 23 23 23.2 0 7050
2018-06-21 21:00:00 22.8 22.7 22.9 0 7030
2018-06-21 22:00:00 22.5 22.4 22.6 0 6962
2018-06-21 23:00:00 22.3 22.2 22.5 0 6962
2018-06-22 00:00:00 22 21.9 22.2 0 6962
2018-06-22 01:00:00 21.8 21.5 22 0 6942
2018-06-22 02:00:00 21.6 21.4 21.8 0 6932
2018-06-22 03:00:00 21.3 21.2 21.6 0 6932
2018-06-22 04:00:00 21.1 21 21.4 0 6932
2018-06-22 05:00:00 20.9 20.9 21.1 0 6932
2018-06-22 06:00:00 20.7 20.4 20.9 0 6952
2018-06-22 07:00:00 20.5 20.5 20.8 0 7020
2018-06-22 08:00:00 20.5 20.4 20.6 0 7246